createdAt,value
2023-03-14T19:27:22.097Z,52.44
2023-03-14T19:29:50.018Z,52.47
2023-03-14T19:32:22.666Z,52.59
2023-03-14T19:34:50.615Z,52.77
2023-03-14T19:37:18.466Z,52.68
2023-03-14T19:39:47.110Z,52.78
2023-03-14T19:42:16.015Z,52.77
2023-03-14T19:44:44.147Z,52.91
2023-03-14T19:47:12.040Z,53.04
2023-03-14T19:49:39.900Z,52.92
2023-03-14T19:52:07.724Z,53.02
2023-03-14T19:54:36.107Z,53.34
2023-03-14T19:57:05.900Z,53.12
2023-03-14T19:59:33.956Z,53.28
2023-03-14T20:02:01.985Z,53.40
2023-03-14T20:04:29.858Z,53.58
2023-03-14T20:06:57.671Z,53.54
2023-03-14T20:09:29.807Z,53.57
2023-03-14T20:11:58.253Z,53.47
2023-03-14T20:14:26.094Z,53.59
2023-03-14T20:16:54.559Z,53.76
2023-03-14T20:19:23.274Z,53.83
2023-03-14T20:21:51.417Z,53.72
2023-03-14T20:24:20.756Z,53.91
2023-03-14T20:26:49.128Z,54.03
2023-03-14T20:29:17.087Z,54.13
2023-03-14T20:31:45.008Z,54.07
2023-03-14T20:34:12.903Z,54.35
2023-03-14T20:36:40.871Z,54.25
2023-03-14T20:39:09.391Z,54.54
2023-03-14T20:41:42.043Z,54.39
2023-03-14T20:44:13.549Z,54.51
2023-03-14T20:46:41.532Z,54.46
2023-03-14T20:49:10.135Z,54.53
2023-03-14T20:51:38.029Z,54.59
2023-03-14T20:54:09.129Z,54.75
2023-03-14T20:56:37.165Z,54.77
2023-03-14T20:59:05.558Z,54.78
2023-03-14T21:04:19.135Z,55.12
2023-03-14T21:06:47.088Z,54.94
2023-03-14T21:09:15.434Z,55.07
2023-03-14T21:11:47.400Z,55.09
2023-03-14T21:14:18.149Z,55.21
2023-03-14T21:16:46.940Z,55.36
2023-03-14T21:19:15.267Z,55.01
2023-03-14T21:21:43.148Z,55.39
2023-03-14T21:24:11.836Z,55.62
2023-03-14T21:26:40.195Z,55.91
2023-03-14T21:29:08.047Z,55.62
2023-03-14T21:31:35.962Z,55.69
2023-03-14T21:34:03.868Z,55.58
2023-03-14T21:36:34.737Z,55.67
2023-03-14T21:39:03.008Z,55.67
2023-03-14T21:41:30.860Z,55.51
2023-03-14T21:43:59.175Z,55.71
2023-03-14T21:46:27.655Z,55.62
2023-03-14T21:48:55.557Z,55.77
2023-03-14T21:51:31.356Z,55.66
2023-03-14T21:54:00.129Z,55.92
2023-03-14T21:56:28.419Z,56.11
2023-03-14T21:58:56.692Z,56.16
2023-03-14T22:01:24.605Z,55.98
2023-03-14T22:03:53.668Z,56.00
2023-03-14T22:06:21.651Z,56.15
2023-03-14T22:08:50.238Z,56.06
2023-03-14T22:11:18.548Z,56.17
2023-03-14T22:13:46.451Z,56.04
2023-03-14T22:16:14.502Z,56.17
2023-03-14T22:18:42.366Z,56.02
2023-03-14T22:21:10.258Z,56.10
2023-03-14T22:23:38.613Z,56.03
2023-03-14T22:26:06.968Z,56.22
2023-03-14T22:28:35.023Z,56.33
2023-03-14T22:31:03.570Z,56.29
2023-03-14T22:33:31.627Z,56.11
2023-03-14T22:36:00.142Z,56.26
2023-03-14T22:38:28.477Z,56.24
2023-03-14T22:41:02.291Z,56.24
2023-03-14T22:43:31.049Z,56.48
2023-03-14T22:46:00.929Z,56.54
2023-03-14T22:48:28.917Z,56.47
2023-03-14T22:50:57.603Z,56.63
2023-03-14T22:53:26.886Z,56.62
2023-03-14T22:56:03.179Z,56.63
2023-03-14T22:58:30.976Z,56.59
2023-03-14T23:01:00.126Z,56.67
2023-03-14T23:03:29.341Z,56.70
2023-03-14T23:05:57.226Z,56.67
2023-03-14T23:08:25.055Z,56.68
2023-03-14T23:11:02.614Z,56.71
2023-03-14T23:13:31.521Z,56.84
2023-03-14T23:16:01.340Z,56.82
2023-03-14T23:18:29.296Z,56.86
2023-03-14T23:21:22.647Z,56.94
2023-03-14T23:23:51.775Z,56.98
2023-03-14T23:26:26.157Z,57.14
2023-03-14T23:28:57.358Z,57.09
2023-03-14T23:31:26.066Z,57.25
2023-03-14T23:33:53.939Z,57.25
2023-03-14T23:36:22.651Z,57.12
2023-03-14T23:38:51.499Z,57.09
2023-03-14T23:41:19.407Z,57.19
2023-03-14T23:43:48.565Z,57.27
2023-03-14T23:46:17.050Z,57.41
2023-03-14T23:48:47.820Z,57.34
2023-03-14T23:51:17.983Z,57.46
2023-03-14T23:53:46.429Z,57.37
2023-03-14T23:56:15.897Z,57.46
2023-03-14T23:58:44.084Z,57.53
